M31 weather

Arnold Field
Halls, Tennessee, United States

Public forecast

Using degrees Fahrenheit for public forecast. Weather courtesy of forecast.io.

Closest aviation weather report (METAR) to Arnold Field

Closest report is Dyersburg Regional Airport, 5.7 nm (10.6 km) N. Retrieved 2020/06/04 01:56 UTC (27 minutes ago):

KDYR 040156Z AUTO 17003KT 10SM CLR 25/21 A2989 RMK AO2 SLP122 T02500211 PNO

Closest aviation forecast (TAF) to Arnold Field

Closest forecast is McKellar-Sipes Regional Airport, 29.7 nm (55.0 km) SE. Retrieved 2020-06-04 00:27 UTC (2 hours ago):

TAF KMKL 032324Z 0400/0424 20005KT P6SM FEW040 SCT100 FM040300 21004KT P6SM VCSH SCT040 BKN100 FM041000 22003KT P6SM VCSH OVC025 FM041600 22008KT P6SM -SHRA VCTS BKN025CB FM042000 21008KT P6SM BKN100